Tak, Thailand

6:34 PM +07 on March 30, 2017 (GMT +0700)
Mae Sot | | Change Station

Elev 643 ft 16.67 °N, 98.55 °E | Updated 34 minutes ago

Partly Cloudy
Partly Cloudy
93 °F
Feels Like 94 °F
N
10
Wind Variable Wind from West

Today
High -- | Low -- °F
--% Chance of Precip.
Yesterday
High -- | Low -- °F
Precip. -- in
Pressure 29.80 in
Visibility -9999.0 miles
Clouds
Heat Index 94 °F
Dew Point 63 °F
Humidity 36%
Rainfall 0.00 in
Snow Depth Not available.
6:19 AM 6:36 PM
Waxing Crescent, 8% visible
METAR VTPM 301100Z 27009KT 240V300 CAVOK 34/17 Q1009 A2980 RMK/RWY 27 INFO L
Pressure 29.80 in
Visibility -9999.0 miles
Clouds
Heat Index 94 °F
Dew Point 63 °F
Humidity 36%
Rainfall 0.00 in
Snow Depth Not available.
6:19 AM 6:36 PM
Waxing Crescent, 8% visible
METAR VTPM 301100Z 27009KT 240V300 CAVOK 34/17 Q1009 A2980 RMK/RWY 27 INFO L

Get Severe Weather Alerts

Thanks for signing up!

Be on the lookout for a verification email in your inbox.

You'll start receiving the daily forecast at 8 AM.

×

10-Day Weather Forecast

No radar image for this location.
×

Almanac

Astronomy

Mar. 30, 2017 Rise Set
Actual Time
Civil Twilight
Nautical Twilight
Astronomical Twilight
Moon
Length of Visible Light
Length of Day
Tomorrow will be .
, % of the Moon is Illuminated

Today's Extremes

Country Highs Country Lows

Community

WunderPhotos

Upload Photos

1,962,540 photos uploaded!

WunderBlog® & News

Nearby

Air Quality

  Air Quality AQ Index Pollutant
Not available.

Snow Depth

Station Depth Elevation

Earthquake Activity

City Distance Mag. Time & Date
Minimum magnitude displayed is 2.5.

Earthquake Activity

City Distance Mag. Time & Date
Minimum magnitude displayed is 2.5.

Coastal Water Temperatures

Place Temperature

Stations

Nearby Weather Stations

Station Location Temp. Windchill Dew Point Humidity Wind Precip. Elev Updated Type